Soda Creek, Canada
Current Conditions -  °F | °C
As of 3:00 PM on Thursday 20 Nov 2014 (Local Time) from CYWL Reporting Station
Broken Clouds Broken Clouds  
Wind Chill: 33°   Ceiling: 8000
Heat Index: 41°   Visibility: 15mi
Dew Point: 28°   Wind: 15mph
Humidity: 61%   Direction: 120°ESE
Pressure: 29.69"   Gusts: NA
Location:  52.34°N, 122.29°W
Report Text: CYWL 202300Z 12013KT 15SM SCT060 BKN080 05/M02 A2969 RMK SC4AC1 SLP082
Loading
Personal Weather Stations






























Interactive Weather Map New forecast layout! Learn more

10-Day Weather Forecast

Advertisements
Track Severe Weather on mobile